Aérodrome :
LOGIN :

S'inscrire | Disclaimer

   EN    FR    IT 

 










Légende :    VFR   VFR Marginal   IFR   IFR Intensif   IFR Très Intensif
Visi : 
Plafond : 
>= 8 km
>= 3000ft
5 à 8 km
1000 à 3000 ft
1500m à 5 km
500 à 1000 ft
800 à 1500m
200 à 500 ft
< 800m
< 200 ft
Symboles :   Orages  Brouillard  Fortes neiges  Fortes précipitations  Vent > 20 kt
SIGMETs :   Divers  Orages  Givrage  Turbulence  Onde Orograph.  Cendres Volcan.






- Altitude de l'aérodrome : 1020 ft
- Code IATA : ILZ


LZZI - Žilina

DERNIER METAR :
  • 280400Z VRB01KT 2700 -RA BR OVC002 15/15 Q1019

METARs EXPIRÉS :
  • 280330Z VRB01KT 3000 -RA BR BKN002 OVC030 15/15 Q1019
  • 280300Z 31003KT 3500 -RA BR SCT012 BKN035 15/15 Q1018
  • 280230Z 30003KT 3200 -RA BR BKN007 OVC018 15/15 Q1018
  • 280200Z 29003KT 3500 -RA BR OVC007 15/15 Q1018
  • 280130Z 29002KT 3100 -RA BR FEW001 OVC007 15/15 Q1018

TAF AMD TAF LZZI
Valide du 28 à 03h jusqu'au 28 à 12h UTC


280333Z 2803/2812 VRB02KT 9999 FEW016 BKN020 OVC030
TEMPO 2803/2808 2000 -RA BR BKN002
PROB40
TEMPO 2803/2807 0300 FG BKN001
BECMG 2806/2808 05005KT



MET'MAP, la Météo Aéronautique d'un coup d'oeil ! - Copyright ORBIFLY Décembre 2007 - Disclaimer

ORBIFLY MET'MAP TEAM :

Programmation & Développement : Alexandra Zaïnal
Sur une idée originale de : Baudouin d'Aumeries
Assistance à la programmation : Marc-Olivier Méhu
Soutien technique & logistique : Manuel Goepfert

Contact : metmap@orbifly.com




SOURCES & CREDITS :

   NOAA